• Join FlightAware (Why Join?)
  • Login
  • US Flag 
08:11AM EDT


 

Airport Tracker/Info


-or-


 

Live Flight TrackerFlight Track Log ✈ SKW6306 ✈ 26-Jun-2013 ✈ KDEN - CYXE

Flight Track Log - Related Links

Times and Time Zones

All times are in EDT time to prevent confusion due to time zone crossing. See the SKW6306 flight status page for this flight to view local times or setup timezone preferences in your user account.

Time Position Orientation Groundspeed Altitude Reporting Facility
EDT Latitude Longitude Course Direction KTS MPH feet Rate Location/Type
03:04PM 39.9239 -104.6850 346° North 206 237 6,300  Level Denver Center
03:05PM 39.9869 -104.6703 10° North 232 267 7,700 1,500 Climbing Denver Center
03:06PM 40.0678 -104.6597 North 273 314 9,400 1,320 Climbing Denver Center
03:07PM 40.1711 -104.7730 347° North  Level FlightAware Approximate
03:07PM 40.1364 -104.6781 348° North 294 338 10,500  Level Denver Center
03:08PM 40.2789 -104.8053 347° North  Level FlightAware Approximate
03:09PM 40.3863 -104.8399 346° North  Level FlightAware Approximate
03:09PM 40.2408 -104.7064 348° North 315 362 11,900  Level Denver Center
03:10PM 40.4936 -104.8756 346° North  Level FlightAware Approximate
03:10PM 40.3297 -104.7297 349° North 322 371 13,500  Level Denver Center
03:11PM 40.4383 -104.7600 348° North 321 369 15,300 1,620 Climbing Denver Center
03:12PM 40.5361 -104.7847 349° North 330 380 16,900 1,140 Climbing Denver Center
03:13PM 40.6267 -104.8106 348° North 334 384 17,700 840 Climbing Denver Center
03:14PM 40.7286 -104.8361 349° North 346 398 18,700 840 Climbing Denver Center
03:15PM 40.8175 -104.8667 345° North 333 383 19,500 780 Climbing Denver Center
03:16PM 40.9081 -104.9125 339° North 343 395 20,400 780 Climbing Denver Center
03:17PM 40.9994 -104.9592 339° North 351 404 21,200 720 Climbing Denver Center
03:18PM 41.1094 -105.0108 341° North 357 411 21,900 660 Climbing Denver Center
03:19PM 41.2008 -105.0556 340° North 363 418 22,600 660 Climbing Denver Center
03:20PM 41.2936 -105.1028 339° North 370 426 23,300 720 Climbing Denver Center
03:21PM 41.4025 -105.1561 340° North 373 429 24,200 780 Climbing Denver Center
03:22PM 41.4964 -105.2017 340° North 376 433 25,000 780 Climbing Denver Center
03:23PM 41.6103 -105.2431 345° North 379 436 25,900 780 Climbing Denver Center
03:24PM 41.7131 -105.2636 352° North 387 445 26,700 780 Climbing Denver Center
03:25PM 41.8292 -105.2847 352° North 379 436 27,600 780 Climbing Denver Center
03:26PM 41.9306 -105.3050 352° North 380 437 28,400 780 Climbing Denver Center
03:27PM 42.0472 -105.3278 352° North 377 434 29,300 660 Climbing Denver Center
03:28PM 42.1469 -105.3464 352° North 377 434 29,800 420 Climbing Denver Center
03:29PM 42.2303 -105.3619 352° North 377 434 30,200 480 Climbing Denver Center
03:30PM 42.3656 -105.3875 352° North 382 440 30,800 480 Climbing Denver Center
03:31PM 42.4683 -105.4072 352° North 387 445 31,300 360 Climbing Denver Center
03:33PM 42.5881 -105.4311 352° North 388 447 31,600 240 Climbing Denver Center
03:34PM 42.6939 -105.4511 352° North 398 458 31,900 180 Climbing Denver Center
03:35PM 42.8164 -105.4744 352° North 397 457 32,000  Climbing Denver Center
03:36PM 42.9236 -105.4958 352° North 403 464 32,000  Level Denver Center
03:37PM 43.0533 -105.5208 352° North 415 478 32,000  Level Denver Center
03:38PM 43.1658 -105.5428 352° North 423 487 32,000  Level Denver Center
03:39PM 43.2981 -105.5689 352° North 428 493 32,000  Level Denver Center
03:40PM 43.4911 -105.6072 352° North 435 501 32,000  Level Salt Lake Center
03:41PM 43.6228 -105.6336 352° North 432 497 32,000  Level Salt Lake Center
03:43PM 43.7369 -105.6569 352° North 432 497 32,000  Level Salt Lake Center
03:44PM 43.8719 -105.6831 352° North 434 499 32,000  Level Salt Lake Center
03:45PM 43.9872 -105.7050 352° North 436 502 32,000  Level Salt Lake Center
03:46PM 44.1208 -105.7336 351° North 435 501 32,000  Level Salt Lake Center
03:47PM 44.2350 -105.7567 352° North 434 499 32,000  Level Salt Lake Center
03:48PM 44.3681 -105.7833 352° North 433 498 32,000  Level Salt Lake Center
03:49PM 44.4828 -105.8061 352° North 434 499 32,000  Level Salt Lake Center
03:50PM 44.6147 -105.8347 351° North 431 496 32,000  Level Salt Lake Center
03:51PM 44.7294 -105.8581 352° North 433 498 32,000  Level Salt Lake Center
03:52PM 44.8619 -105.8844 352° North 432 497 32,000  Level Salt Lake Center
03:53PM 44.9764 -105.9100 351° North 434 499 32,000  Level Salt Lake Center
03:54PM 45.0903 -105.9333 352° North 433 498 32,000  Level Salt Lake Center
03:55PM 45.2242 -105.9611 352° North 435 501 32,000  Level Salt Lake Center
03:56PM 45.3308 -105.9847 351° North 434 499 32,000  Level Salt Lake Center
03:57PM 45.4733 -106.0136 352° North 432 497 32,000  Level Salt Lake Center
03:58PM 45.5928 -106.0389 352° North 433 498 32,000  Level Salt Lake Center
03:59PM 45.7125 -106.0642 352° North 435 501 32,000  Level Salt Lake Center
04:00PM 45.8311 -106.0886 352° North 433 498 32,000  Level Salt Lake Center
04:01PM 45.9486 -106.1128 352° North 430 495 32,000  Level Salt Lake Center
04:02PM 46.0681 -106.1369 352° North 431 496 32,000  Level Salt Lake Center
04:03PM 46.2125 -106.1694 351° North 433 498 32,000  Level Salt Lake Center
04:04PM 46.3325 -106.1967 351° North 435 501 32,000  Level Salt Lake Center
04:05PM 46.4517 -106.2231 351° North 435 501 32,000  Level Salt Lake Center
04:06PM 46.5714 -106.2506 351° North 435 501 32,000  Level Salt Lake Center
04:07PM 46.6903 -106.2758 352° North 434 499 32,000  Level Salt Lake Center
04:08PM 46.8119 -106.3036 351° North 436 502 32,000  Level Salt Lake Center
04:09PM 46.9289 -106.3303 351° North 434 499 32,000  Level Salt Lake Center
04:10PM 47.0706 -106.3611 352° North 432 497 32,000  Level Salt Lake Center
04:11PM 47.1900 -106.3883 351° North 431 496 32,000  Level Salt Lake Center
04:12PM 47.3089 -106.4156 351° North 432 497 32,000  Level Salt Lake Center
04:14PM 47.4275 -106.4428 351° North 432 497 32,000  Level Salt Lake Center
04:15PM 47.5444 -106.4700 351° North 429 494 32,000  Level Salt Lake Center
04:16PM 47.6600 -106.4978 351° North 425 489 32,000  Level Salt Lake Center
04:17PM 47.7775 -106.5242 351° North 425 489 32,000  Level Salt Lake Center
04:18PM 47.9181 -106.5564 351° North 426 490 32,000  Level Salt Lake Center
04:19PM 48.0361 -106.5850 351° North 427 491 32,000  Level Salt Lake Center
04:20PM 48.1539 -106.6108 352° North 428 493 32,000  Level Salt Lake Center
04:21PM 48.2706 -106.6503 347° North 429 494 32,000  Level Salt Lake Center
04:22PM 48.3781 -106.7064 341° North 419 482 32,000 -60 Level Salt Lake Center
04:23PM 48.4903 -106.7469 347° North 417 480 31,900  Descending Salt Lake Center
04:24PM 48.6336 -106.7739 353° North 427 491 32,000  Climbing Salt Lake Center
04:25PM 48.7542 -106.7975 353° North 432 497 32,000  Level Salt Lake Center
04:26PM 48.8725 -106.8206 353° North 432 497 32,000  Level Salt Lake Center
04:27PM 48.9667 -106.8667 342° North 430 495 32,000  Level Winnipeg Center
04:28PM 49.0833 -106.8833 355° North 430 495 32,000  Level Winnipeg Center
04:29PM 49.1833 -106.9167 348° North 430 495 32,000  Level Winnipeg Center
04:30PM 49.3000 -106.9333 355° North 420 483 32,000  Level Winnipeg Center
04:31PM 49.4167 -106.9667 349° North 430 495 32,000  Level Winnipeg Center
04:32PM 49.5500 -106.9833 355° North 430 495 32,000  Level Winnipeg Center
04:33PM 49.6500 -107.0167 348° North 430 495 32,000  Level Winnipeg Center
04:34PM 49.7833 -107.0333 355° North 420 483 32,000  Level Winnipeg Center
04:35PM 49.9000 -107.0667 350° North 430 495 32,000  Level Winnipeg Center
04:36PM 50.0167 -107.0833 355° North 430 495 32,000  Level Winnipeg Center
04:37PM 50.1333 -107.1167 350° North 430 495 32,000  Level Winnipeg Center
04:38PM 50.2500 -107.1333 355° North 430 495 32,000  Level Winnipeg Center
04:39PM 50.3833 -107.1667 351° North 430 495 32,000  Level Winnipeg Center
04:40PM 50.5000 -107.2000 350° North 430 495 32,000  Level Winnipeg Center
04:41PM 50.6000 -107.2167 354° North 430 495 32,000  Level Winnipeg Center
04:42PM 50.7333 -107.2167 360° North 430 495 32,000  Level Winnipeg Center
04:43PM 50.8500 -107.2500 350° North 430 495 32,000  Level Winnipeg Center
04:44PM 50.9667 -107.2667 355° North 430 495 32,000  Level Winnipeg Center
04:45PM 51.0833 -107.3000 350° North 430 495 32,000  Level Winnipeg Center
04:46PM 51.2000 -107.3167 355° North 430 495 32,000 -120 Level Winnipeg Center
04:47PM 51.3333 -107.3333 356° North 450 518 31,800 -1,140 Descending Winnipeg Center
04:48PM 51.4500 -107.2833 15° North 470 541 29,800 -2,160 Descending Winnipeg Center
04:49PM 51.5667 -107.2500 10° North 440 506 27,500 -3,300 Descending Winnipeg Center
04:50PM 51.6667 -107.3000 343° North 410 472 23,200 -4,800 Descending Winnipeg Center
04:51PM 51.7833 -107.3000 360° North 390 449 18,000 -4,800 Descending Winnipeg Center
04:52PM 51.8667 -107.2000 37° Northeast 390 449 13,700 -3,600 Descending Winnipeg Center
04:53PM 51.9000 -107.0833 65° Northeast 350 403 10,800 -2,760 Descending Winnipeg Center
04:54PM 51.9333 -106.9167 72° East 310 357 8,200 -2,820 Descending Winnipeg Center
04:55PM 51.9667 -106.8167 62° Northeast 290 334 5,200 -1,800 Descending Winnipeg Center
04:56PM 51.9833 -106.6833 78° East 280 322 4,600 -600 Descending Winnipeg Center
04:57PM 52.0000 -106.5833 75° East 260 299 4,000 -300 Descending Winnipeg Center
04:58PM 52.0333 -106.5167 51° Northeast 210 242 4,000  Level Winnipeg Center
04:59PM 52.0833 -106.5000 12° North 210 242 4,100 -180 Climbing Winnipeg Center
05:00PM 52.1333 -106.5333 338° Northwest 200 230 3,700 -420 Descending Winnipeg Center